Time;durP1;ratioP1;P1;durP2;ratioP2;P2;SDS_P1;SDS_P2;PMS_P1;PMS_P2;Temp;Humidity;BMP_temperature;BMP_pressure;BME280_temperature;BME280_humidity;BME280_pressure;Samples;Min_cycle;Max_cycle;Signal;HPM_P1;HPM_P2
2021/05/08 00:02:26;;;;;;;5.20;4.27;;;5.70;85.50;;;5.20;81.07;98467.97;5059692;28;21002;-69
2021/05/08 00:04:55;;;;;;;4.60;4.10;;;5.60;85.60;;;5.18;81.86;98474.97;5064222;28;20682;-69
2021/05/08 00:07:22;;;;;;;6.10;4.60;;;5.60;85.50;;;5.15;80.83;98468.16;5064837;28;20647;-69
2021/05/08 00:09:50;;;;;;;5.47;4.10;;;5.60;85.30;;;5.09;81.76;98464.16;5062258;28;21256;-69
2021/05/08 00:12:18;;;;;;;6.07;4.60;;;5.50;85.40;;;5.04;81.32;98468.69;5061948;28;21118;-69
2021/05/08 00:14:47;;;;;;;4.23;3.83;;;5.50;85.70;;;5.00;81.30;98469.72;5059721;28;20973;-69
2021/05/08 00:17:15;;;;;;;5.50;4.33;;;5.50;85.60;;;4.92;81.44;98472.59;5060597;28;20635;-69
2021/05/08 00:19:43;;;;;;;5.90;4.40;;;5.40;85.90;;;4.92;81.44;98464.00;5065191;28;21485;-69
2021/05/08 00:22:11;;;;;;;5.93;4.57;;;5.40;86.00;;;4.86;82.06;98462.50;5065550;28;20700;-69
2021/05/08 00:24:38;;;;;;;5.03;4.27;;;5.30;86.30;;;4.87;81.99;98463.34;5062581;28;20667;-69
2021/05/08 00:27:06;;;;;;;5.60;4.63;;;5.30;86.40;;;4.83;82.17;98466.97;5064052;28;21477;-69
2021/05/08 00:29:34;;;;;;;4.90;3.80;;;5.30;86.40;;;4.79;82.49;98461.06;5064964;28;21243;-69
2021/05/08 00:32:04;;;;;;;5.37;4.37;;;5.20;86.30;;;4.77;81.65;98462.03;5063286;28;20735;-69
2021/05/08 00:34:32;;;;;;;4.57;4.00;;;5.20;86.50;;;4.70;81.93;98455.44;5066885;28;20659;-69
2021/05/08 00:37:00;;;;;;;5.63;4.80;;;5.10;86.60;;;4.68;82.59;98467.56;5066679;28;20640;-69
2021/05/08 00:39:27;;;;;;;5.03;4.53;;;5.10;86.70;;;4.68;81.48;98464.97;5058776;28;20639;-69
2021/05/08 00:41:55;;;;;;;5.20;4.10;;;5.10;86.90;;;4.68;81.64;98464.97;5061158;28;21173;-69
2021/05/08 00:44:23;;;;;;;5.30;4.63;;;5.10;87.00;;;4.66;82.09;98466.78;5059037;28;20636;-69
2021/05/08 00:46:52;;;;;;;5.20;4.70;;;5.10;87.60;;;4.63;83.10;98460.88;5064705;28;21285;-69
2021/05/08 00:49:22;;;;;;;5.10;4.57;;;5.10;87.20;;;4.61;82.43;98458.38;5059274;28;20675;-69
2021/05/08 00:51:49;;;;;;;5.60;4.37;;;5.10;87.50;;;4.60;82.50;98463.59;5062905;28;20640;-69
2021/05/08 00:54:17;;;;;;;4.90;4.40;;;5.00;87.40;;;4.58;83.27;98468.81;5047318;28;20637;-69
2021/05/08 00:56:45;;;;;;;6.37;4.70;;;5.00;87.40;;;4.57;82.79;98464.56;5064351;28;20687;-69
2021/05/08 00:59:13;;;;;;;4.47;4.07;;;5.00;87.50;;;4.60;83.02;98472.19;5063135;28;20632;-69
2021/05/08 01:01:42;;;;;;;5.67;4.37;;;5.00;87.40;;;4.56;82.44;98468.03;5063886;28;20650;-69
2021/05/08 01:04:10;;;;;;;5.07;4.57;;;5.00;87.50;;;4.54;81.81;98467.28;5063047;28;20644;-69
2021/05/08 01:06:40;;;;;;;5.63;4.00;;;5.00;88.50;;;4.52;82.84;98465.63;5057248;28;20736;-69
2021/05/08 01:09:08;;;;;;;4.57;4.07;;;5.00;87.80;;;4.53;82.79;98472.50;5057805;28;21213;-69
2021/05/08 01:11:37;;;;;;;5.00;4.07;;;5.00;87.80;;;4.51;82.66;98469.97;5058838;28;21184;-69
2021/05/08 01:14:06;;;;;;;5.40;4.73;;;5.00;87.70;;;4.47;82.32;98462.41;5063281;28;20685;-69
2021/05/08 01:16:36;;;;;;;5.03;4.10;;;4.90;87.80;;;4.45;83.34;98472.78;5055883;28;20668;-69
2021/05/08 01:19:06;;;;;;;5.00;4.30;;;4.90;87.90;;;4.41;82.70;98468.63;5064032;28;21090;-69
2021/05/08 01:21:36;;;;;;;5.33;4.67;;;4.90;87.80;;;4.41;82.97;98460.06;5055811;28;20633;-69
2021/05/08 01:24:05;;;;;;;6.00;4.70;;;4.90;88.20;;;4.38;83.54;98463.59;5062701;28;20637;-69
2021/05/08 01:26:33;;;;;;;5.70;4.80;;;4.80;88.00;;;4.38;82.77;98466.16;5073240;28;20629;-69
2021/05/08 01:29:01;;;;;;;5.40;4.20;;;4.80;87.60;;;4.37;82.38;98464.47;5065983;28;20754;-69
2021/05/08 01:31:29;;;;;;;5.53;4.83;;;4.80;87.80;;;4.30;82.95;98462.19;5063820;28;21288;-69
2021/05/08 01:33:57;;;;;;;4.77;4.37;;;4.80;87.80;;;4.29;82.71;98457.94;5058713;28;21183;-69
2021/05/08 01:36:25;;;;;;;5.50;4.13;;;4.70;87.90;;;4.28;83.15;98464.84;5060699;28;20676;-69
2021/05/08 01:38:55;;;;;;;5.57;5.00;;;4.70;88.00;;;4.24;82.50;98471.00;5037955;28;20632;-69
2021/05/08 01:41:23;;;;;;;5.17;4.67;;;4.70;88.30;;;4.22;83.43;98466.78;5061638;28;20666;-69
2021/05/08 01:43:51;;;;;;;5.67;4.07;;;4.70;88.40;;;4.20;82.78;98469.44;5057845;28;20677;-69
2021/05/08 01:46:19;;;;;;;5.00;4.40;;;4.70;88.40;;;4.21;83.11;98465.97;5060897;28;20690;-69
2021/05/08 01:48:47;;;;;;;6.50;4.67;;;4.70;88.70;;;4.20;84.04;98464.28;5055955;28;20683;-69
2021/05/08 01:51:15;;;;;;;5.53;5.03;;;4.70;88.90;;;4.20;83.34;98460.03;5068410;28;20634;-69
2021/05/08 01:53:43;;;;;;;6.40;5.07;;;4.60;88.70;;;4.20;82.88;98457.44;5062614;28;20639;-69
2021/05/08 01:56:12;;;;;;;5.30;4.80;;;4.70;88.80;;;4.17;82.65;98463.56;5054384;28;21253;-69
2021/05/08 01:58:39;;;;;;;8.93;4.60;;;4.60;88.60;;;4.15;82.80;98452.47;5061894;28;20632;-69
2021/05/08 02:01:08;;;;;;;7.13;5.30;;;4.60;88.70;;;4.14;83.59;98452.50;5058651;28;20637;-69
2021/05/08 02:03:43;;;;;;;5.10;4.60;;;4.60;88.90;;;4.10;83.32;98446.59;5057658;28;20628;-69
2021/05/08 02:06:15;;;;;;;5.17;4.40;;;4.60;89.10;;;4.12;82.71;98443.97;5060443;28;20632;-69
2021/05/08 02:09:06;;;;;;;5.90;4.83;;;4.60;89.20;;;4.12;83.81;98449.13;5072342;28;20656;-69
2021/05/08 02:11:47;;;;;;;5.90;5.30;;;4.60;89.10;;;4.07;82.97;98441.56;5060932;28;21001;-69
2021/05/08 02:14:15;;;;;;;6.53;4.70;;;4.60;89.00;;;4.03;84.20;98439.16;5062589;28;21234;-69
2021/05/08 02:16:43;;;;;;;5.60;5.00;;;4.50;89.10;;;4.03;83.25;98437.44;5060479;28;20647;-67
2021/05/08 02:19:16;;;;;;;6.97;5.23;;;4.50;89.30;;;4.04;83.29;98433.09;5078292;28;20613;-67
2021/05/08 02:21:45;;;;;;;6.63;5.07;;;4.50;89.20;;;4.01;83.97;98436.63;5061503;28;20863;-67
2021/05/08 02:24:13;;;;;;;5.90;5.30;;;4.50;89.40;;;4.01;83.41;98433.22;5055923;28;20644;-67
2021/05/08 02:26:41;;;;;;;5.80;4.90;;;4.50;90.00;;;3.99;83.64;98432.44;5057304;28;21200;-67
2021/05/08 02:29:11;;;;;;;5.27;4.77;;;4.50;89.30;;;3.94;83.22;98430.03;5064137;28;20659;-67
2021/05/08 02:31:41;;;;;;;5.77;4.87;;;4.40;89.00;;;3.92;83.71;98429.22;5056570;28;20633;-67
2021/05/08 02:34:09;;;;;;;6.10;4.93;;;4.40;90.00;;;3.91;84.49;98426.69;5062876;28;20636;-67
2021/05/08 02:36:37;;;;;;;6.30;5.20;;;4.40;89.40;;;3.91;84.01;98429.28;5057886;28;20627;-67
2021/05/08 02:39:05;;;;;;;5.90;4.63;;;4.40;89.40;;;3.86;83.52;98421.75;5075574;28;20621;-67
2021/05/08 02:41:33;;;;;;;5.40;4.47;;;4.30;89.30;;;3.87;83.04;98417.41;5052830;28;20628;-67
2021/05/08 02:44:02;;;;;;;4.90;4.43;;;4.40;89.40;;;3.82;83.52;98427.06;5058533;28;20663;-67
2021/05/08 02:46:31;;;;;;;5.77;4.60;;;4.30;88.90;;;3.82;83.82;98422.75;5060023;28;20636;-67
2021/05/08 02:48:58;;;;;;;5.90;4.40;;;4.30;89.20;;;3.81;83.79;98426.19;5061400;28;20755;-67
2021/05/08 02:51:26;;;;;;;6.13;5.50;;;4.30;89.20;;;3.80;83.36;98423.69;5064492;28;20706;-67
2021/05/08 02:53:54;;;;;;;6.90;4.47;;;4.30;89.40;;;3.77;82.97;98418.63;5063213;28;20635;-67
2021/05/08 02:56:22;;;;;;;7.30;5.20;;;4.20;89.50;;;3.79;84.18;98419.44;5060147;28;20640;-67
2021/05/08 02:58:50;;;;;;;5.90;5.30;;;4.30;89.70;;;3.78;83.43;98417.75;5060788;28;21188;-67
2021/05/08 03:01:17;;;;;;;4.97;4.47;;;4.30;89.90;;;3.76;83.78;98414.41;5065003;28;21273;-67
2021/05/08 03:03:46;;;;;;;4.93;4.40;;;4.20;90.00;;;3.75;83.97;98421.28;5064968;28;20632;-67
2021/05/08 03:06:13;;;;;;;5.60;5.10;;;4.20;90.40;;;3.73;83.82;98419.66;5041577;28;20730;-67
2021/05/08 03:08:44;;;;;;;5.83;4.80;;;4.20;90.10;;;3.73;83.80;98414.50;5065252;28;20686;-67
2021/05/08 03:11:16;;;;;;;5.63;5.00;;;4.20;90.10;;;3.72;83.94;98420.56;5063648;28;21151;-67
2021/05/08 03:13:46;;;;;;;6.73;5.33;;;4.20;90.20;;;3.70;84.71;98419.78;5064439;28;20655;-67
2021/05/08 03:16:13;;;;;;;5.33;4.57;;;4.20;90.30;;;3.73;84.20;98422.25;5061699;28;20663;-67
2021/05/08 03:18:43;;;;;;;6.10;5.50;;;4.20;90.40;;;3.74;84.73;98417.03;5063686;28;20644;-69
2021/05/08 03:21:12;;;;;;;5.30;4.80;;;4.20;90.40;;;3.76;84.27;98420.38;5063217;28;21208;-69
2021/05/08 03:23:41;;;;;;;7.90;5.93;;;4.20;90.30;;;3.77;84.65;98418.63;5063957;28;20628;-69
2021/05/08 03:26:09;;;;;;;6.80;5.20;;;4.20;90.30;;;3.76;84.81;98417.81;5068940;28;22651;-69
2021/05/08 03:28:37;;;;;;;6.90;5.50;;;4.20;90.40;;;3.75;84.23;98413.53;5065641;28;21207;-69
2021/05/08 03:31:05;;;;;;;6.70;5.90;;;4.20;90.30;;;3.73;84.71;98412.75;5058286;28;20632;-69
2021/05/08 03:33:33;;;;;;;5.63;5.00;;;4.20;90.30;;;3.74;84.08;98413.59;5065314;28;20628;-69
2021/05/08 03:36:01;;;;;;;5.27;4.53;;;4.20;90.40;;;3.72;83.93;98413.66;5061802;28;20746;-69
2021/05/08 03:38:31;;;;;;;6.10;5.50;;;4.20;90.20;;;3.70;83.70;98413.75;5061572;28;20635;-68
2021/05/08 03:41:00;;;;;;;7.90;5.90;;;4.10;90.20;;;3.70;83.77;98414.63;5065767;28;21209;-68
2021/05/08 03:43:28;;;;;;;6.03;4.87;;;4.20;90.20;;;3.69;84.48;98412.09;5065015;28;20631;-68
2021/05/08 03:45:55;;;;;;;6.50;5.33;;;4.10;90.30;;;3.68;84.30;98406.06;5066233;28;20643;-68
2021/05/08 03:48:23;;;;;;;5.50;4.97;;;4.10;90.20;;;3.66;83.89;98402.72;5066048;28;20632;-68
2021/05/08 03:50:52;;;;;;;5.30;4.70;;;4.10;90.20;;;3.69;83.83;98410.34;5061767;28;21191;-68
2021/05/08 03:53:21;;;;;;;6.03;5.43;;;4.10;90.20;;;3.68;84.46;98405.25;5060933;28;20635;-68
2021/05/08 03:55:51;;;;;;;5.53;4.97;;;4.10;90.10;;;3.67;84.16;98407.00;5065707;28;20631;-68
2021/05/08 03:58:20;;;;;;;5.57;4.97;;;4.10;90.30;;;3.71;84.48;98403.38;5065986;28;22090;-68
2021/05/08 04:00:48;;;;;;;6.30;5.37;;;4.20;90.30;;;3.69;84.16;98410.34;5066539;28;20667;-68
2021/05/08 04:03:15;;;;;;;5.30;4.80;;;4.10;90.30;;;3.72;84.14;98406.81;5062797;28;20644;-68
2021/05/08 04:05:43;;;;;;;5.80;5.20;;;4.10;90.20;;;3.70;83.95;98411.19;5068930;28;20636;-68
2021/05/08 04:08:12;;;;;;;5.97;5.37;;;4.10;90.30;;;3.72;83.80;98405.91;5066758;28;20805;-68
2021/05/08 04:10:39;;;;;;;5.13;4.63;;;4.20;90.30;;;3.75;84.62;98410.97;5066407;28;20683;-68
2021/05/08 04:13:08;;;;;;;6.10;5.47;;;4.20;90.30;;;3.76;83.55;98404.09;5065000;28;21206;-68
2021/05/08 04:15:35;;;;;;;5.77;4.93;;;4.20;90.10;;;3.80;83.99;98411.66;5066782;28;20663;-68
2021/05/08 04:18:04;;;;;;;5.03;4.53;;;4.20;90.10;;;3.82;84.18;98409.03;5062375;28;20639;-68
2021/05/08 04:20:31;;;;;;;7.63;5.33;;;4.30;90.20;;;3.82;83.49;98403.84;5060878;28;20674;-68
2021/05/08 04:23:04;;;;;;;6.53;5.00;;;4.20;90.20;;;3.81;83.72;98408.16;5062467;28;20642;-68
2021/05/08 04:25:32;;;;;;;7.20;5.03;;;4.20;90.20;;;3.87;84.10;98413.09;5063389;28;20640;-68
2021/05/08 04:28:00;;;;;;;6.20;5.30;;;4.30;90.40;;;3.95;83.62;98398.16;5063567;28;20785;-68
2021/05/08 04:30:32;;;;;;;6.27;5.20;;;4.30;90.40;;;4.01;83.74;98408.25;5064642;28;20648;-68
2021/05/08 04:33:31;;;;;;;5.20;4.70;;;4.40;90.50;;;4.07;83.43;98405.44;5116202;27;20822;-69
2021/05/08 04:35:58;;;;;;;6.37;5.50;;;4.50;90.40;;;4.13;83.74;98400.03;5100131;28;20647;-69
2021/05/08 04:38:26;;;;;;;6.23;5.63;;;4.50;90.30;;;4.19;83.66;98404.16;5103027;28;20690;-69
2021/05/08 04:40:54;;;;;;;6.93;5.60;;;4.50;90.20;;;4.18;83.90;98403.31;5102480;28;20634;-70
2021/05/08 04:43:21;;;;;;;5.60;5.00;;;4.60;90.10;;;4.21;83.78;98406.59;5104986;28;20634;-70
2021/05/08 04:45:50;;;;;;;6.10;5.50;;;4.60;90.00;;;4.24;84.05;98397.91;5104511;28;20630;-70
2021/05/08 04:48:25;;;;;;;5.30;4.80;;;4.60;90.10;;;4.30;83.28;98395.06;5104465;28;20633;-70
2021/05/08 04:50:54;;;;;;;5.50;5.00;;;4.70;90.00;;;4.32;83.23;98404.44;5097672;28;20636;-70
2021/05/08 04:53:22;;;;;;;6.37;5.30;;;4.70;89.80;;;4.38;82.75;98401.63;5099430;28;20653;-70
2021/05/08 04:55:50;;;;;;;5.50;4.80;;;4.80;89.70;;;4.45;82.87;98407.38;5103213;28;21008;-70
2021/05/08 04:58:19;;;;;;;5.87;4.50;;;4.80;89.20;;;4.49;83.13;98407.19;5107810;28;21041;-70
2021/05/08 05:00:47;;;;;;;5.50;4.50;;;4.90;89.70;;;4.53;82.70;98405.38;5100865;28;20727;-70
2021/05/08 05:03:15;;;;;;;5.40;4.90;;;4.90;89.90;;;4.65;82.42;98410.88;5101247;28;21024;-70
2021/05/08 05:05:44;;;;;;;6.43;5.73;;;4.90;89.10;;;4.64;83.34;98403.19;5101631;28;20695;-70
2021/05/08 05:08:18;;;;;;;7.10;4.83;;;5.00;89.90;;;4.72;83.43;98401.94;5098482;28;21036;-70
2021/05/08 05:10:50;;;;;;;6.67;5.60;;;5.10;89.70;;;4.78;82.80;98397.41;5102579;28;20692;-70
2021/05/08 05:13:18;;;;;;;5.50;5.00;;;5.10;90.00;;;4.88;83.71;98398.69;5107587;28;20648;-70
2021/05/08 05:15:45;;;;;;;7.10;5.40;;;5.20;90.00;;;4.91;82.82;98398.56;5080625;28;20687;-68
2021/05/08 05:18:13;;;;;;;7.60;6.90;;;5.20;89.00;;;5.08;82.75;98400.44;5097553;28;21303;-68
2021/05/08 05:20:41;;;;;;;6.87;5.30;;;5.40;90.00;;;5.20;82.55;98400.78;5101274;28;20258;-68
2021/05/08 05:23:09;;;;;;;6.93;6.23;;;5.50;89.20;;;5.32;82.47;98401.13;5101770;28;20633;-68
2021/05/08 05:25:38;;;;;;;6.93;5.67;;;5.60;89.40;;;5.44;81.33;98400.59;5108150;28;20634;-67
2021/05/08 05:28:20;;;;;;;6.93;6.20;;;5.70;88.80;;;5.68;80.77;98399.50;5101561;28;20638;-67
2021/05/08 05:30:47;;;;;;;7.97;6.00;;;5.90;88.30;;;5.90;81.28;98411.44;5103940;28;20722;-67
2021/05/08 05:33:15;;;;;;;6.13;5.20;;;6.10;87.40;;;6.17;79.36;98400.66;5100578;28;20666;-69
2021/05/08 05:35:43;;;;;;;6.23;5.03;;;6.40;86.50;;;6.56;79.82;98404.81;5098501;28;20686;-68
2021/05/08 05:38:11;;;;;;;5.97;5.37;;;6.70;86.60;;;7.05;77.92;98407.56;5100171;28;20739;-68
2021/05/08 05:40:39;;;;;;;6.57;5.73;;;7.10;85.00;;;7.50;75.97;98400.91;5103175;28;20648;-68
2021/05/08 05:43:07;;;;;;;6.23;5.27;;;7.50;83.40;;;7.81;74.44;98405.34;5096436;28;20628;-68
2021/05/08 05:45:34;;;;;;;6.10;5.47;;;7.90;80.90;;;8.16;74.18;98406.03;5084948;28;20754;-68
2021/05/08 05:48:04;;;;;;;5.63;5.10;;;8.20;79.20;;;8.63;72.13;98415.50;5082072;28;20639;-68
2021/05/08 05:50:36;;;;;;;6.00;5.27;;;8.60;78.50;;;9.06;72.23;98412.16;5088343;28;21205;-68
2021/05/08 05:53:04;;;;;;;5.73;5.20;;;9.00;77.60;;;9.38;71.56;98418.00;5087351;28;20658;-68
2021/05/08 05:55:32;;;;;;;6.93;5.17;;;9.40;76.00;;;9.72;70.33;98422.91;5092199;28;20699;-68
2021/05/08 05:58:01;;;;;;;5.83;5.23;;;9.70;74.40;;;9.98;69.02;98419.59;5087222;28;20666;-68
2021/05/08 06:00:29;;;;;;;5.97;5.43;;;10.00;71.40;;;10.23;69.41;98420.59;5088728;28;20692;-68
2021/05/08 06:02:57;;;;;;;5.67;5.17;;;10.20;71.00;;;10.65;68.44;98423.16;5092397;28;20691;-68
2021/05/08 06:05:25;;;;;;;6.50;5.50;;;10.60;71.30;;;10.96;68.50;98413.25;5089762;28;21201;-68
2021/05/08 06:07:52;;;;;;;8.00;7.00;;;10.90;69.90;;;11.20;67.36;98399.44;5084794;28;20646;-68
2021/05/08 06:10:20;;;;;;;7.77;6.97;;;11.20;68.50;;;11.48;66.71;98410.59;5086423;28;21106;-68
2021/05/08 06:12:47;;;;;;;6.50;5.90;;;11.50;67.50;;;11.72;66.73;98406.34;5081128;28;20654;-68
2021/05/08 06:15:16;;;;;;;7.10;5.60;;;11.70;67.40;;;12.03;66.85;98405.94;5085729;28;20662;-68
2021/05/08 06:17:44;;;;;;;6.00;5.40;;;11.90;66.90;;;12.33;66.05;98402.00;5089558;28;20696;-67
2021/05/08 06:20:13;;;;;;;6.40;5.80;;;12.20;67.10;;;12.57;65.96;98410.72;5091934;28;20630;-68
2021/05/08 06:22:40;;;;;;;7.33;4.90;;;12.40;66.00;;;12.76;63.66;98406.69;5081717;28;20987;-68
2021/05/08 06:25:10;;;;;;;7.07;5.73;;;12.60;65.30;;;13.04;65.48;98407.22;5091323;28;20645;-68
2021/05/08 06:27:40;;;;;;;6.07;5.47;;;12.90;66.10;;;13.27;63.94;98406.38;5086270;28;20641;-69
2021/05/08 06:30:09;;;;;;;6.70;6.10;;;13.10;64.30;;;13.64;64.05;98415.78;5087508;28;20627;-69
2021/05/08 06:32:38;;;;;;;9.57;6.10;;;13.40;64.70;;;13.85;62.14;98418.44;5087156;28;20654;-69
2021/05/08 06:35:06;;;;;;;8.40;6.40;;;13.70;62.80;;;14.16;62.29;98415.16;5089885;28;20658;-69
2021/05/08 06:37:34;;;;;;;7.70;6.60;;;13.90;62.90;;;14.51;62.91;98415.88;5088702;28;21243;-69
2021/05/08 06:40:02;;;;;;;9.70;6.30;;;14.20;63.20;;;14.52;60.98;98412.28;5085961;28;20634;-70
2021/05/08 06:42:29;;;;;;;6.87;6.13;;;14.40;60.00;;;14.49;61.24;98409.91;5084963;28;20638;-70
2021/05/08 06:44:57;;;;;;;7.50;6.80;;;14.40;59.20;;;14.55;59.75;98417.31;5085945;28;20681;-70
2021/05/08 06:47:25;;;;;;;6.97;6.27;;;14.40;58.80;;;14.75;60.34;98407.72;5086733;28;20644;-70
2021/05/08 06:49:54;;;;;;;7.20;6.50;;;14.60;59.40;;;14.95;60.56;98406.97;5086491;28;20646;-70
2021/05/08 06:52:21;;;;;;;7.07;6.40;;;14.70;60.00;;;15.07;61.72;98409.41;5083566;28;20688;-70
2021/05/08 06:54:49;;;;;;;7.10;6.27;;;14.90;59.60;;;15.49;59.50;98413.00;5082945;28;20658;-70
2021/05/08 06:57:17;;;;;;;6.23;5.67;;;15.20;59.60;;;15.73;59.66;98410.00;5086933;28;20637;-71
2021/05/08 06:59:44;;;;;;;6.33;5.73;;;15.40;58.70;;;15.98;60.77;98399.06;5088836;28;21168;-72
2021/05/08 07:02:12;;;;;;;9.20;6.47;;;15.70;59.20;;;16.26;58.56;98398.41;5087876;28;20692;-73
2021/05/08 07:04:40;;;;;;;11.57;7.40;;;16.00;59.50;;;16.31;56.49;98396.22;5092732;28;20632;-72
2021/05/08 07:07:08;;;;;;;7.50;6.80;;;16.10;56.20;;;16.41;55.40;98394.47;5087082;28;20679;-70
2021/05/08 07:09:36;;;;;;;7.33;6.60;;;16.20;55.30;;;16.60;57.92;98387.47;5083650;28;21531;-70
2021/05/08 07:12:05;;;;;;;7.40;5.27;;;16.40;55.70;;;17.07;55.17;98393.63;5084873;28;21164;-73
2021/05/08 07:14:32;;;;;;;11.07;8.20;;;16.80;56.10;;;17.45;55.44;98387.59;5086251;28;20686;-72
2021/05/08 07:17:00;;;;;;;6.27;5.60;;;17.10;54.30;;;17.55;54.99;98389.25;5093482;28;20628;-70
2021/05/08 07:19:28;;;;;;;9.20;7.63;;;17.20;53.80;;;17.98;51.98;98388.63;5064295;28;20636;-69
2021/05/08 07:21:55;;;;;;;4.47;3.47;;;17.60;51.40;;;18.27;52.67;98388.56;5081247;28;20971;-71
2021/05/08 07:24:24;;;;;;;5.80;3.30;;;17.90;49.90;;;18.45;51.15;98391.13;5087865;28;21185;-71
2021/05/08 07:26:52;;;;;;;5.03;3.40;;;18.20;48.90;;;18.68;50.19;98381.81;5085327;28;20654;-71
2021/05/08 07:29:19;;;;;;;4.53;3.43;;;18.50;48.80;;;18.86;48.85;98379.22;5088021;28;20634;-71
2021/05/08 07:31:47;;;;;;;4.63;3.50;;;18.70;47.10;;;18.95;51.04;98382.63;5067508;28;20987;-71
2021/05/08 07:34:15;;;;;;;4.47;3.47;;;18.80;47.20;;;19.03;48.25;98374.81;5088425;28;20699;-71
2021/05/08 07:36:43;;;;;;;5.00;3.90;;;18.90;45.60;;;19.06;49.37;98379.81;5085993;28;20624;-71
2021/05/08 07:39:11;;;;;;;7.30;3.90;;;19.00;45.50;;;19.20;47.58;98370.50;5086761;28;20638;-71
2021/05/08 07:41:40;;;;;;;4.60;3.60;;;19.10;43.80;;;19.28;48.78;98368.78;5089536;28;20746;-71
2021/05/08 07:44:08;;;;;;;4.97;3.37;;;19.10;45.30;;;19.34;46.95;98377.94;5083785;28;20623;-72
2021/05/08 07:46:36;;;;;;;3.90;2.53;;;19.30;43.50;;;19.35;48.75;98377.78;5089688;28;20643;-71
2021/05/08 07:49:04;;;;;;;4.27;3.63;;;19.30;44.20;;;19.68;51.74;98377.03;5083845;28;20645;-72
2021/05/08 07:51:32;;;;;;;3.60;2.83;;;19.50;47.60;;;19.79;48.50;98372.34;5091748;28;21076;-72
2021/05/08 07:54:04;;;;;;;4.80;3.40;;;19.60;47.20;;;19.76;48.88;98380.59;5089143;28;21582;-72
2021/05/08 07:56:33;;;;;;;3.80;3.33;;;19.60;46.80;;;19.73;49.16;98372.16;5093591;28;20641;-72
2021/05/08 07:59:02;;;;;;;5.50;3.30;;;19.70;45.60;;;19.83;48.60;98376.38;5093846;28;20656;-72
2021/05/08 08:01:30;;;;;;;3.57;3.20;;;19.70;44.40;;;19.99;48.24;98376.50;5101191;28;20640;-72
2021/05/08 08:03:57;;;;;;;6.20;3.60;;;19.80;44.00;;;20.07;49.31;98376.53;5088048;28;20637;-71
2021/05/08 08:06:26;;;;;;;4.80;3.20;;;19.90;45.00;;;20.19;50.28;98380.59;5082870;28;20647;-71
2021/05/08 08:08:55;;;;;;;4.73;3.13;;;20.00;44.90;;;20.29;47.84;98382.13;5083393;28;20626;-71
2021/05/08 08:11:22;;;;;;;4.77;3.47;;;20.10;43.30;;;20.08;48.09;98378.22;5086256;28;20638;-71
2021/05/08 08:13:50;;;;;;;5.00;3.23;;;20.00;42.50;;;20.08;51.80;98375.56;5082770;28;21069;-71
2021/05/08 08:16:18;;;;;;;23.00;5.33;;;20.00;46.50;;;20.00;48.26;98375.50;5088531;28;20679;-71
2021/05/08 08:18:46;;;;;;;6.93;3.53;;;19.90;44.80;;;20.02;49.40;98379.66;5088036;28;20675;-71
2021/05/08 08:21:13;;;;;;;22.93;5.17;;;19.90;44.10;;;20.17;49.22;98377.28;5081307;28;20642;-71
2021/05/08 08:23:41;;;;;;;5.07;3.33;;;20.00;44.80;;;20.25;48.22;98379.97;5085216;28;20627;-71
2021/05/08 08:26:09;;;;;;;2.77;2.47;;;20.10;43.50;;;20.22;46.74;98380.28;5085958;28;20647;-71
2021/05/08 08:28:37;;;;;;;5.73;2.90;;;20.10;43.00;;;20.36;48.03;98376.06;5079871;28;21194;-71
2021/05/08 08:31:05;;;;;;;9.73;3.10;;;20.20;44.80;;;20.49;51.75;98373.81;5084262;28;20638;-71
2021/05/08 08:33:34;;;;;;;15.23;3.77;;;20.30;46.80;;;20.68;49.49;98370.91;5086196;28;20654;-71
2021/05/08 08:36:01;;;;;;;5.53;2.90;;;20.50;45.50;;;20.82;48.98;98372.94;5082817;28;20665;-71
2021/05/08 08:38:29;;;;;;;7.77;3.60;;;20.70;44.80;;;20.92;50.60;98376.31;5082298;28;20636;-71
2021/05/08 08:40:57;;;;;;;9.33;3.80;;;20.80;45.30;;;20.99;48.28;98374.69;5082955;28;20638;-71
2021/05/08 08:43:25;;;;;;;6.03;3.23;;;20.90;43.80;;;21.02;47.22;98379.66;5080901;28;20699;-71
2021/05/08 08:45:52;;;;;;;15.33;3.63;;;20.90;42.70;;;21.02;47.29;98369.88;5078536;28;20715;-71
2021/05/08 08:48:21;;;;;;;10.47;3.63;;;20.90;42.10;;;20.73;45.50;98371.25;5084318;28;20628;-71
2021/05/08 08:50:50;;;;;;;16.27;4.07;;;20.70;41.60;;;20.50;49.62;98364.84;5095698;28;21034;-74
2021/05/08 08:53:18;;;;;;;32.60;5.50;;;20.50;43.40;;;20.43;49.34;98362.97;5083428;28;20662;-72
2021/05/08 08:55:52;;;;;;;11.83;3.43;;;20.40;43.20;;;20.24;49.74;98360.59;5081935;28;20706;-71
2021/05/08 08:58:26;;;;;;;29.37;6.80;;;20.20;43.70;;;20.15;48.00;98358.06;5082490;28;21185;-71
2021/05/08 09:00:57;;;;;;;4.87;3.00;;;20.10;43.20;;;20.33;48.41;98360.47;5081993;28;20638;-71
2021/05/08 09:03:25;;;;;;;7.10;3.60;;;20.20;43.80;;;20.32;45.51;98357.97;5082358;28;20630;-71
2021/05/08 09:05:54;;;;;;;3.80;3.20;;;20.20;42.20;;;20.16;47.71;98362.34;5079684;28;20635;-71
2021/05/08 09:08:23;;;;;;;4.23;3.50;;;20.10;43.00;;;19.98;46.72;98348.34;5084346;28;20697;-71
2021/05/08 09:10:51;;;;;;;24.37;6.40;;;19.90;40.60;;;19.89;47.27;98333.38;5081970;28;21186;-71
2021/05/08 09:13:22;;;;;;;7.50;2.60;;;19.80;42.00;;;19.78;47.19;98336.25;5090002;28;21038;-71
2021/05/08 09:15:52;;;;;;;4.10;2.60;;;19.80;42.00;;;19.62;47.43;98327.38;5062930;28;20637;-71
2021/05/08 09:18:35;;;;;;;5.70;2.73;;;19.70;41.60;;;19.54;47.15;98327.31;5076651;28;20653;-71
2021/05/08 09:21:05;;;;;;;3.30;2.73;;;19.60;41.00;;;19.59;48.28;98333.81;5081633;28;20643;-71
2021/05/08 09:23:35;;;;;;;5.30;3.47;;;19.60;43.20;;;19.63;48.25;98329.03;5087211;28;20640;-71
2021/05/08 09:26:05;;;;;;;9.03;5.00;;;19.60;42.90;;;19.42;49.65;98329.41;5084208;28;21273;-71
2021/05/08 09:28:35;;;;;;;4.23;2.47;;;19.30;44.20;;;19.31;47.09;98330.63;5071960;28;20635;-71
2021/05/08 09:31:05;;;;;;;3.93;3.53;;;19.20;42.20;;;19.32;47.22;98316.38;5081670;28;20618;-71
2021/05/08 09:33:34;;;;;;;4.40;4.00;;;19.20;42.80;;;19.34;48.48;98314.44;5092158;28;21252;-71
2021/05/08 09:36:08;;;;;;;3.33;2.40;;;19.20;42.70;;;19.27;49.54;98311.56;5088426;28;20690;-71
2021/05/08 09:38:38;;;;;;;2.63;2.20;;;19.20;45.00;;;19.39;50.19;98318.25;5080139;28;20667;-71
2021/05/08 09:41:07;;;;;;;2.47;2.27;;;19.30;45.70;;;19.49;49.58;98309.25;5081577;28;20683;-71
2021/05/08 09:43:37;;;;;;;2.90;2.30;;;19.40;45.10;;;19.58;48.97;98310.97;5066232;28;20664;-71
2021/05/08 09:46:06;;;;;;;2.67;2.10;;;19.40;43.10;;;19.57;46.57;98301.38;5084758;28;20632;-71
2021/05/08 09:48:35;;;;;;;4.70;4.10;;;19.50;41.00;;;19.63;48.28;98295.44;5088094;28;21385;-71
2021/05/08 09:51:21;;;;;;;3.30;2.07;;;19.50;43.20;;;19.60;47.87;98294.94;5068852;28;20620;-71
2021/05/08 09:53:51;;;;;;;3.40;2.30;;;19.50;43.20;;;19.61;49.06;98286.84;5080407;28;20676;-71
2021/05/08 09:56:36;;;;;;;3.40;2.47;;;19.60;44.40;;;19.56;47.13;98291.78;5083950;28;20626;-71
2021/05/08 09:59:29;;;;;;;2.73;2.20;;;19.50;41.20;;;19.48;46.38;98286.44;5084854;28;20635;-71
2021/05/08 10:02:15;;;;;;;3.00;2.27;;;19.40;41.20;;;19.33;47.57;98291.59;5085746;28;20637;-71
2021/05/08 10:05:12;;;;;;;2.90;2.30;;;19.30;42.80;;;19.32;47.70;98292.56;5080749;28;20622;-71
2021/05/08 10:07:40;;;;;;;3.00;2.30;;;19.20;43.00;;;19.42;50.06;98283.56;5083660;28;20966;-71
2021/05/08 10:10:09;;;;;;;2.90;2.60;;;19.30;44.60;;;19.44;47.46;98287.72;5083868;28;21018;-71
2021/05/08 10:12:37;;;;;;;3.03;2.30;;;19.30;43.40;;;19.45;47.84;98284.09;5080273;28;21470;-71
2021/05/08 10:15:07;;;;;;;7.20;5.60;;;19.30;41.60;;;19.46;47.83;98282.28;5081057;28;20644;-71
2021/05/08 10:17:35;;;;;;;3.27;2.63;;;19.30;42.50;;;19.53;48.42;98284.16;5088059;28;20717;-71
2021/05/08 10:20:07;;;;;;;3.00;2.20;;;19.40;42.50;;;19.64;48.85;98275.13;5092578;28;20636;-71
2021/05/08 10:22:42;;;;;;;2.83;2.27;;;19.50;43.80;;;19.75;48.98;98274.84;5084867;28;20725;-71
2021/05/08 10:25:11;;;;;;;5.10;2.17;;;19.60;42.80;;;19.77;48.55;98275.53;5081073;28;20633;-71
2021/05/08 10:27:39;;;;;;;3.30;2.17;;;19.60;42.60;;;19.98;48.56;98271.53;5083230;28;21189;-71
2021/05/08 10:30:13;;;;;;;2.40;1.73;;;19.80;43.40;;;20.01;45.60;98261.47;5088556;28;21020;-71
2021/05/08 10:32:45;;;;;;;2.50;2.20;;;19.80;41.60;;;19.90;49.32;98253.78;5088472;28;20773;-71
2021/05/08 10:35:14;;;;;;;2.80;2.07;;;19.70;43.40;;;19.96;47.91;98249.69;5088593;28;20233;-71
2021/05/08 10:38:20;;;;;;;2.37;2.17;;;19.70;42.60;;;20.14;49.41;98248.59;5092813;28;21185;-71